createdAt,value
2022-08-03T00:00:37.654Z,23.03
2022-08-03T00:03:06.251Z,23.07
2022-08-03T00:05:36.077Z,22.36
2022-08-03T00:08:04.917Z,22.17
2022-08-03T00:10:35.344Z,22.33
2022-08-03T00:13:03.702Z,22.55
2022-08-03T00:15:32.122Z,22.18
2022-08-03T00:18:00.417Z,22.30
2022-08-03T00:20:28.686Z,22.27
2022-08-03T00:22:59.032Z,22.35
2022-08-03T00:25:27.497Z,22.18
2022-08-03T00:27:55.837Z,22.48
2022-08-03T00:30:26.928Z,22.53
2022-08-03T00:32:59.698Z,22.61
2022-08-03T00:35:50.072Z,22.66
2022-08-03T00:38:18.876Z,22.63
2022-08-03T00:40:47.531Z,22.61
2022-08-03T00:43:15.907Z,22.66
2022-08-03T00:45:44.969Z,22.71
2022-08-03T00:48:29.415Z,22.68
2022-08-03T00:51:01.697Z,22.61
2022-08-03T00:53:32.370Z,22.59
2022-08-03T00:56:01.028Z,22.52
2022-08-03T00:58:29.570Z,22.54
2022-08-03T01:00:57.913Z,22.55
2022-08-03T01:03:26.399Z,22.50
2022-08-03T01:05:59.750Z,22.41
2022-08-03T01:08:39.726Z,22.53
2022-08-03T01:11:15.892Z,22.41
2022-08-03T01:14:03.736Z,22.51
2022-08-03T01:16:49.427Z,22.59
2022-08-03T01:19:46.718Z,22.07
2022-08-03T01:22:36.560Z,22.28
2022-08-03T01:25:16.415Z,22.45
2022-08-03T01:27:56.022Z,22.56
2022-08-03T01:30:30.293Z,22.49
2022-08-03T01:33:03.639Z,22.32
2022-08-03T01:35:38.674Z,20.89
2022-08-03T01:38:13.878Z,21.60
2022-08-03T01:40:44.618Z,21.38
2022-08-03T01:44:27.852Z,21.07
2022-08-03T01:46:08.971Z,21.18
2022-08-03T01:48:39.266Z,21.52
2022-08-03T01:51:09.648Z,21.73
2022-08-03T01:53:39.523Z,21.82
2022-08-03T01:56:08.846Z,21.83
2022-08-03T01:58:38.586Z,21.88
2022-08-03T02:01:10.702Z,21.46
2022-08-03T02:03:59.995Z,21.44
2022-08-03T02:07:00.194Z,21.72
2022-08-03T02:09:23.364Z,21.80
2022-08-03T02:11:53.391Z,21.83
2022-08-03T02:14:23.991Z,21.82
2022-08-03T02:16:54.561Z,21.81
2022-08-03T02:19:24.289Z,21.86
2022-08-03T02:21:56.721Z,21.71
2022-08-03T02:24:30.161Z,21.69
2022-08-03T02:27:00.517Z,21.80
2022-08-03T02:29:39.195Z,21.86
2022-08-03T02:32:13.793Z,21.59
2022-08-03T02:34:46.047Z,21.67
2022-08-03T02:37:16.325Z,21.37
2022-08-03T02:39:46.209Z,20.63
2022-08-03T02:42:17.853Z,20.55
2022-08-03T02:44:51.376Z,20.56
2022-08-03T02:47:22.691Z,20.71
2022-08-03T02:49:52.646Z,20.60
2022-08-03T02:52:24.521Z,20.70
2022-08-03T02:54:56.513Z,20.31
2022-08-03T02:57:26.868Z,19.42
2022-08-03T02:59:56.626Z,20.38
2022-08-03T03:02:26.893Z,19.80
2022-08-03T03:05:52.241Z,20.29
2022-08-03T03:07:52.165Z,20.57
2022-08-03T03:10:23.232Z,20.93
2022-08-03T03:12:53.972Z,21.16
2022-08-03T03:15:22.664Z,20.68
2022-08-03T03:17:54.856Z,20.39
2022-08-03T03:20:28.965Z,20.54
2022-08-03T03:22:59.885Z,20.86
2022-08-03T03:25:29.313Z,20.98
2022-08-03T03:27:58.021Z,21.08
2022-08-03T03:30:26.951Z,21.08
2022-08-03T03:32:57.212Z,21.18
2022-08-03T03:35:26.072Z,21.32
2022-08-03T03:37:54.482Z,21.42
2022-08-03T03:40:23.384Z,21.51
2022-08-03T03:42:52.097Z,21.64
2022-08-03T03:45:22.035Z,21.67
2022-08-03T03:47:51.349Z,21.66
2022-08-03T03:50:21.912Z,21.70
2022-08-03T03:52:50.434Z,21.76
2022-08-03T03:55:19.792Z,21.60
2022-08-03T03:57:48.178Z,21.50
2022-08-03T04:00:18.720Z,21.76
2022-08-03T04:02:47.358Z,21.26
2022-08-03T04:05:34.081Z,20.92
2022-08-03T04:08:26.017Z,21.41
2022-08-03T04:11:06.453Z,21.68
2022-08-03T04:13:38.141Z,21.87
2022-08-03T04:16:08.650Z,22.08
2022-08-03T04:18:40.148Z,22.21
2022-08-03T04:21:12.647Z,22.25
2022-08-03T04:23:47.415Z,22.29
2022-08-03T04:26:20.945Z,22.38
2022-08-03T04:28:51.671Z,22.45
2022-08-03T04:31:23.500Z,22.59
2022-08-03T04:33:54.142Z,22.71
2022-08-03T04:36:25.036Z,22.85
2022-08-03T04:39:01.639Z,22.98
2022-08-03T04:41:31.826Z,22.31
2022-08-03T04:44:01.466Z,22.71
2022-08-03T04:46:33.368Z,22.29
2022-08-03T04:49:03.426Z,22.83
2022-08-03T04:51:34.917Z,22.89
2022-08-03T04:54:04.845Z,23.04
2022-08-03T04:56:34.332Z,22.53
2022-08-03T04:59:03.285Z,22.97
2022-08-03T05:01:31.709Z,22.39
2022-08-03T05:04:00.472Z,21.93
2022-08-03T05:06:28.912Z,22.03
2022-08-03T05:08:57.268Z,22.16
2022-08-03T05:11:27.229Z,21.80
2022-08-03T05:13:55.694Z,21.97
2022-08-03T05:16:25.969Z,21.82
2022-08-03T05:18:54.372Z,22.17
2022-08-03T05:21:22.796Z,22.36
2022-08-03T05:23:51.124Z,22.35
2022-08-03T05:26:19.506Z,23.00
2022-08-03T05:28:51.367Z,23.58
2022-08-03T05:31:20.581Z,23.27
2022-08-03T05:33:49.426Z,23.52
2022-08-03T05:36:18.142Z,22.66
2022-08-03T05:38:46.529Z,22.41
2022-08-03T05:41:21.186Z,22.97
2022-08-03T05:43:53.932Z,23.71
2022-08-03T05:46:23.786Z,23.90
2022-08-03T05:48:52.564Z,23.27
2022-08-03T05:51:21.097Z,23.43
2022-08-03T05:53:49.587Z,24.12
2022-08-03T05:56:17.963Z,24.19
2022-08-03T05:58:47.916Z,24.41
2022-08-03T06:01:18.713Z,24.43
2022-08-03T06:03:47.484Z,24.81
2022-08-03T06:06:16.284Z,24.69
2022-08-03T06:08:45.532Z,24.90
2022-08-03T06:11:14.360Z,25.27
2022-08-03T06:13:42.770Z,25.84
2022-08-03T06:16:11.283Z,25.74
2022-08-03T06:18:41.705Z,26.13
2022-08-03T06:21:15.517Z,26.62
2022-08-03T06:23:54.725Z,26.19
2022-08-03T06:26:25.901Z,26.09
2022-08-03T06:28:55.141Z,26.16
2022-08-03T06:31:33.316Z,26.79
2022-08-03T06:34:35.224Z,27.16
2022-08-03T06:36:58.533Z,26.75
2022-08-03T06:39:30.747Z,27.24
2022-08-03T06:41:59.327Z,27.52
2022-08-03T06:44:27.817Z,27.73
2022-08-03T06:46:56.240Z,28.09
2022-08-03T06:49:26.165Z,27.89
2022-08-03T06:52:05.891Z,27.03
2022-08-03T06:54:37.965Z,26.83
2022-08-03T06:57:08.482Z,26.73
2022-08-03T07:00:08.850Z,27.30
2022-08-03T07:02:28.373Z,27.32
2022-08-03T07:04:58.870Z,27.58
2022-08-03T07:07:27.385Z,27.16
2022-08-03T07:09:57.689Z,26.85
2022-08-03T07:12:29.184Z,26.99
2022-08-03T07:15:02.876Z,27.90
2022-08-03T07:17:32.207Z,28.38
2022-08-03T07:20:03.268Z,28.64
2022-08-03T07:22:31.732Z,28.39
2022-08-03T07:25:01.023Z,26.78
2022-08-03T07:27:30.610Z,27.45
2022-08-03T07:29:59.822Z,27.86
2022-08-03T07:32:31.663Z,27.15
2022-08-03T07:35:01.865Z,27.62
2022-08-03T07:37:31.236Z,28.07
2022-08-03T07:40:00.334Z,27.13
2022-08-03T07:42:29.466Z,26.87
2022-08-03T07:44:58.828Z,27.26
2022-08-03T07:47:35.076Z,27.38
2022-08-03T07:50:06.713Z,27.25
2022-08-03T07:52:49.698Z,28.10
2022-08-03T07:55:19.114Z,28.01
2022-08-03T07:57:47.601Z,27.72
2022-08-03T08:00:18.471Z,28.06
2022-08-03T08:02:47.080Z,27.60
2022-08-03T08:05:16.774Z,27.88
2022-08-03T08:07:51.081Z,27.88
2022-08-03T08:10:20.592Z,28.51
2022-08-03T08:12:49.599Z,28.72
2022-08-03T08:15:17.987Z,29.07
2022-08-03T08:17:48.090Z,29.16
2022-08-03T08:20:23.793Z,29.91
2022-08-03T08:22:58.351Z,31.05
2022-08-03T08:25:30.743Z,31.29
2022-08-03T08:28:30.081Z,31.23
2022-08-03T08:30:50.918Z,31.86
2022-08-03T08:33:23.058Z,32.74
2022-08-03T08:35:54.533Z,32.48
2022-08-03T08:38:23.601Z,33.12
2022-08-03T08:40:53.142Z,33.70
2022-08-03T08:43:21.654Z,34.08
2022-08-03T08:45:51.827Z,34.00
2022-08-03T08:48:23.898Z,33.99
2022-08-03T08:50:56.981Z,34.59
2022-08-03T08:53:27.925Z,33.65
2022-08-03T08:56:01.555Z,32.47
2022-08-03T08:58:43.377Z,31.93
2022-08-03T09:01:11.783Z,32.69
2022-08-03T09:03:40.428Z,33.62
2022-08-03T09:06:10.227Z,34.41
2022-08-03T09:08:38.659Z,33.01
2022-08-03T09:11:07.715Z,33.25
2022-08-03T09:13:37.089Z,33.80
2022-08-03T09:16:15.860Z,33.80
2022-08-03T09:18:45.312Z,34.66
2022-08-03T09:21:36.306Z,35.02
2022-08-03T09:24:16.419Z,34.61
2022-08-03T09:26:54.271Z,34.98
2022-08-03T09:29:23.774Z,34.82
2022-08-03T09:32:02.650Z,34.53
2022-08-03T09:34:31.499Z,35.05
2022-08-03T09:37:01.256Z,35.65
2022-08-03T09:39:41.222Z,36.43
2022-08-03T09:42:11.696Z,35.42
2022-08-03T09:44:44.813Z,34.89
2022-08-03T09:47:14.498Z,35.13
2022-08-03T09:49:44.094Z,33.87
2022-08-03T09:52:31.495Z,34.30
2022-08-03T09:55:02.921Z,34.59
2022-08-03T09:57:32.089Z,35.74
2022-08-03T10:00:13.511Z,36.40
2022-08-03T10:02:42.738Z,36.41
2022-08-03T10:05:19.444Z,35.49
2022-08-03T10:07:50.969Z,34.81
2022-08-03T10:10:28.943Z,36.04
2022-08-03T10:13:01.659Z,36.88
2022-08-03T10:16:23.238Z,35.42
2022-08-03T10:18:19.010Z,34.87
2022-08-03T10:20:53.164Z,35.30
2022-08-03T10:23:25.130Z,35.16
2022-08-03T10:26:00.284Z,35.38
2022-08-03T10:28:35.838Z,35.93
2022-08-03T10:31:07.797Z,35.42
2022-08-03T10:33:49.805Z,34.85
2022-08-03T10:36:24.363Z,33.31
2022-08-03T10:38:55.329Z,33.31
2022-08-03T10:41:27.313Z,33.72
2022-08-03T10:44:06.809Z,33.74
2022-08-03T10:46:39.282Z,33.40
2022-08-03T10:49:15.159Z,33.00
2022-08-03T10:51:44.061Z,33.14
2022-08-03T10:54:58.172Z,32.76
2022-08-03T10:57:50.107Z,32.25
2022-08-03T11:00:21.864Z,32.20
2022-08-03T11:03:10.134Z,31.78
2022-08-03T11:05:40.586Z,31.83
2022-08-03T11:08:29.773Z,31.71
2022-08-03T11:11:02.860Z,32.01
2022-08-03T11:13:34.078Z,31.92
2022-08-03T11:16:22.034Z,32.40
2022-08-03T11:18:58.647Z,33.16
2022-08-03T11:21:54.354Z,33.60
2022-08-03T11:24:58.875Z,33.69
2022-08-03T11:27:30.328Z,33.93
2022-08-03T11:30:02.074Z,34.19
2022-08-03T11:32:56.416Z,34.51
2022-08-03T11:35:26.761Z,34.89
2022-08-03T11:38:13.872Z,35.39
2022-08-03T11:40:45.188Z,34.47
2022-08-03T11:43:47.838Z,34.62
2022-08-03T11:46:29.368Z,34.80
2022-08-03T11:49:09.994Z,34.40
2022-08-03T11:51:40.346Z,34.07
2022-08-03T11:54:09.388Z,35.22
2022-08-03T11:56:47.760Z,36.18
2022-08-03T11:59:22.182Z,36.74
2022-08-03T12:01:52.031Z,37.65
2022-08-03T12:04:20.512Z,38.30
2022-08-03T12:07:01.901Z,38.49
2022-08-03T12:09:30.464Z,38.51
2022-08-03T12:12:00.168Z,37.68
2022-08-03T12:14:49.910Z,36.82
2022-08-03T12:17:20.265Z,36.21
2022-08-03T12:19:48.965Z,35.86
2022-08-03T12:22:18.051Z,34.95
2022-08-03T12:24:47.614Z,34.19
2022-08-03T12:27:25.337Z,34.21
2022-08-03T12:29:58.247Z,34.81
2022-08-03T12:32:27.812Z,35.53
2022-08-03T12:35:00.178Z,35.72
2022-08-03T12:37:49.492Z,34.68
2022-08-03T12:40:28.181Z,33.71
2022-08-03T12:42:56.927Z,33.66
2022-08-03T12:45:28.558Z,33.61
2022-08-03T12:47:58.395Z,33.48
2022-08-03T12:50:29.232Z,33.09
2022-08-03T12:52:58.185Z,32.94
2022-08-03T12:55:56.353Z,32.82
2022-08-03T12:58:33.937Z,32.24
2022-08-03T13:01:57.571Z,32.23
2022-08-03T13:05:00.252Z,32.28
2022-08-03T13:07:28.622Z,31.98
2022-08-03T13:09:57.715Z,31.78
2022-08-03T13:12:28.803Z,32.00
2022-08-03T13:14:58.675Z,31.38
2022-08-03T13:17:27.756Z,31.50
2022-08-03T13:19:56.455Z,31.08
2022-08-03T13:22:29.106Z,31.19
2022-08-03T13:24:58.887Z,31.05
2022-08-03T13:28:03.864Z,30.84
2022-08-03T13:30:28.247Z,29.84
2022-08-03T13:33:00.606Z,29.66
2022-08-03T13:35:29.055Z,29.71
2022-08-03T13:37:58.892Z,29.93
2022-08-03T13:40:29.960Z,29.26
2022-08-03T13:42:58.916Z,29.52
2022-08-03T13:45:27.639Z,29.18
2022-08-03T13:47:56.009Z,29.09
2022-08-03T13:50:24.529Z,29.00
2022-08-03T13:52:52.934Z,28.97
2022-08-03T13:55:22.809Z,29.27
2022-08-03T13:58:05.034Z,29.29
2022-08-03T14:00:35.919Z,28.79
2022-08-03T14:03:13.293Z,28.68
2022-08-03T14:05:43.309Z,28.50
2022-08-03T14:08:12.438Z,28.57
2022-08-03T14:10:44.103Z,28.85
2022-08-03T14:13:17.503Z,27.87
2022-08-03T14:15:49.796Z,28.54
2022-08-03T14:18:28.364Z,27.74
2022-08-03T14:21:03.395Z,27.87
2022-08-03T14:23:33.921Z,27.83
2022-08-03T14:26:03.891Z,28.12
2022-08-03T14:28:32.233Z,28.11
2022-08-03T14:31:00.743Z,28.71
2022-08-03T14:33:29.592Z,29.10
2022-08-03T14:35:58.466Z,28.82
2022-08-03T14:38:26.825Z,28.50
2022-08-03T14:40:55.359Z,28.11
2022-08-03T14:43:25.308Z,27.61
2022-08-03T14:46:02.358Z,27.67
2022-08-03T14:50:29.295Z,27.73
2022-08-03T14:51:19.504Z,27.73
2022-08-03T14:53:47.908Z,27.61
2022-08-03T14:56:16.297Z,27.56
2022-08-03T14:58:46.224Z,28.18
2022-08-03T15:02:03.260Z,28.14
2022-08-03T15:04:02.998Z,28.06
2022-08-03T15:06:34.938Z,27.68
2022-08-03T15:09:21.534Z,27.51
2022-08-03T15:11:51.708Z,27.61
2022-08-03T15:14:28.470Z,27.93
2022-08-03T15:17:01.758Z,27.60
2022-08-03T15:20:00.931Z,27.95
2022-08-03T15:22:25.396Z,27.52
2022-08-03T15:26:28.726Z,27.21
2022-08-03T15:28:02.834Z,26.96
2022-08-03T15:30:37.311Z,26.88
2022-08-03T15:33:07.714Z,26.74
2022-08-03T15:35:38.694Z,27.09
2022-08-03T15:38:09.688Z,27.69
2022-08-03T15:40:39.060Z,27.90
2022-08-03T15:43:07.548Z,27.42
2022-08-03T15:45:37.580Z,27.06
2022-08-03T15:48:07.814Z,26.99
2022-08-03T15:50:36.389Z,26.63
2022-08-03T15:53:05.089Z,26.83
2022-08-03T15:55:33.926Z,26.82
2022-08-03T15:59:09.239Z,26.45
2022-08-03T16:00:52.151Z,26.38
2022-08-03T16:03:20.595Z,25.87
2022-08-03T16:05:49.035Z,25.84
2022-08-03T16:08:17.395Z,25.76
2022-08-03T16:10:46.825Z,25.84
2022-08-03T16:13:16.814Z,26.26
2022-08-03T16:15:45.232Z,25.99
2022-08-03T16:18:15.149Z,25.58
2022-08-03T16:20:44.972Z,25.79
2022-08-03T16:23:15.533Z,25.63
2022-08-03T16:25:49.205Z,25.71
2022-08-03T16:28:18.537Z,26.04
2022-08-03T16:30:48.540Z,25.92
2022-08-03T16:33:18.568Z,25.84
2022-08-03T16:35:49.662Z,25.81
2022-08-03T16:38:19.504Z,25.88
2022-08-03T16:40:51.878Z,25.90
2022-08-03T16:43:21.251Z,25.27
2022-08-03T16:45:49.829Z,25.70
2022-08-03T16:48:20.357Z,25.71
2022-08-03T16:50:49.828Z,25.67
2022-08-03T16:53:51.799Z,25.89
2022-08-03T16:56:10.686Z,26.16
2022-08-03T16:58:42.394Z,26.20
2022-08-03T17:01:21.577Z,25.82
2022-08-03T17:04:02.087Z,25.69
2022-08-03T17:06:35.468Z,25.30
2022-08-03T17:09:09.158Z,25.44
2022-08-03T17:11:44.058Z,25.75
2022-08-03T17:14:16.697Z,25.27
2022-08-03T17:16:51.947Z,25.22
2022-08-03T17:19:26.517Z,24.60
2022-08-03T17:22:01.484Z,25.11
2022-08-03T17:24:35.183Z,25.31
2022-08-03T17:27:08.568Z,25.44
2022-08-03T17:29:39.507Z,25.18
2022-08-03T17:32:18.391Z,25.31
2022-08-03T17:34:52.314Z,24.94
2022-08-03T17:37:50.731Z,25.22
2022-08-03T17:40:18.123Z,25.11
2022-08-03T17:45:52.190Z,24.75
2022-08-03T17:48:21.563Z,24.70
2022-08-03T17:51:00.533Z,24.64
2022-08-03T17:53:33.688Z,24.69
2022-08-03T17:56:42.452Z,25.06
2022-08-03T17:59:11.643Z,24.98
2022-08-03T18:02:12.351Z,24.62
2022-08-03T18:04:57.491Z,24.57
2022-08-03T18:07:41.219Z,24.90
2022-08-03T18:10:12.090Z,25.20
2022-08-03T18:12:51.768Z,24.34
2022-08-03T18:15:25.800Z,25.09
2022-08-03T18:18:01.887Z,25.68
2022-08-03T18:20:40.901Z,24.58
2022-08-03T18:26:02.650Z,25.34
2022-08-03T18:28:33.634Z,25.64
2022-08-03T18:31:05.774Z,25.67
2022-08-03T18:34:17.133Z,25.72
2022-08-03T18:36:30.257Z,25.08
2022-08-03T18:39:02.615Z,24.10
2022-08-03T18:41:34.347Z,24.72
2022-08-03T18:44:06.681Z,24.73
2022-08-03T18:46:48.114Z,24.25
2022-08-03T18:49:29.127Z,24.62
2022-08-03T18:52:03.948Z,24.39
2022-08-03T18:54:50.987Z,24.87
2022-08-03T18:57:38.253Z,25.13
2022-08-03T19:00:10.453Z,25.33
2022-08-03T19:02:48.599Z,25.31
2022-08-03T19:05:21.294Z,25.39
2022-08-03T19:10:57.656Z,25.39
2022-08-03T19:13:36.643Z,25.08
2022-08-03T19:16:10.529Z,25.19
2022-08-03T19:18:43.397Z,25.20
2022-08-03T19:21:15.705Z,24.85
2022-08-03T19:23:47.011Z,24.49
2022-08-03T19:26:30.201Z,24.49
2022-08-03T19:29:00.176Z,24.37
2022-08-03T19:31:31.080Z,24.62
2022-08-03T19:34:04.742Z,24.52
2022-08-03T19:36:40.395Z,24.86
2022-08-03T19:39:10.116Z,24.73
2022-08-03T19:41:42.770Z,24.90
2022-08-03T19:44:13.141Z,24.88
2022-08-03T19:46:53.638Z,24.86
2022-08-03T19:50:06.283Z,24.94
2022-08-03T19:52:16.458Z,24.92
2022-08-03T19:54:54.676Z,24.93
2022-08-03T19:57:27.376Z,24.92
2022-08-03T19:59:57.744Z,24.85
2022-08-03T20:02:28.060Z,24.46
2022-08-03T20:04:59.776Z,24.78
2022-08-03T20:07:32.053Z,24.78
2022-08-03T20:10:01.924Z,24.56
2022-08-03T20:12:39.084Z,24.88
2022-08-03T20:15:09.309Z,24.46
2022-08-03T20:17:57.068Z,23.92
2022-08-03T20:20:30.076Z,23.53
2022-08-03T20:23:00.475Z,22.91
2022-08-03T20:25:38.247Z,23.31
2022-08-03T20:28:15.150Z,23.89
2022-08-03T20:30:47.099Z,24.24
2022-08-03T20:33:18.383Z,24.30
2022-08-03T20:35:49.644Z,23.99
2022-08-03T20:38:19.633Z,24.17
2022-08-03T20:40:49.289Z,23.49
2022-08-03T20:43:19.963Z,23.61
2022-08-03T20:45:59.098Z,23.87
2022-08-03T20:48:37.822Z,23.87
2022-08-03T20:51:19.330Z,23.86
2022-08-03T20:53:59.438Z,24.16
2022-08-03T20:56:33.815Z,24.23
2022-08-03T20:59:06.083Z,24.23
2022-08-03T21:01:36.643Z,24.07
2022-08-03T21:04:24.249Z,23.76
2022-08-03T21:07:00.926Z,23.66
2022-08-03T21:09:40.028Z,23.69
2022-08-03T21:12:15.607Z,22.93
2022-08-03T21:12:54.738Z,24.89
2022-08-03T21:13:04.626Z,25.49
2022-08-03T21:13:10.447Z,25.31
2022-08-03T21:14:58.811Z,23.58
2022-08-03T21:17:40.421Z,23.35
2022-08-03T21:20:11.998Z,22.99
2022-08-03T21:22:45.132Z,23.39
2022-08-03T21:25:16.541Z,23.52
2022-08-03T21:27:45.254Z,23.53
2022-08-03T21:30:15.519Z,23.50
2022-08-03T21:32:46.442Z,23.20
2022-08-03T21:35:15.085Z,23.46
2022-08-03T21:37:45.218Z,23.57
2022-08-03T21:40:15.544Z,23.60
2022-08-03T21:42:46.353Z,23.57
2022-08-03T21:45:17.601Z,23.56
2022-08-03T21:47:47.232Z,23.12
2022-08-03T21:50:16.380Z,22.81
2022-08-03T21:52:47.145Z,22.60
2022-08-03T21:55:18.459Z,22.81
2022-08-03T21:57:53.844Z,23.24
2022-08-03T22:00:25.035Z,23.45
2022-08-03T22:02:56.087Z,23.59
2022-08-03T22:05:42.935Z,23.59
2022-08-03T22:08:13.959Z,23.52
2022-08-03T22:10:44.394Z,23.56
2022-08-03T22:13:13.730Z,23.62
2022-08-03T22:15:43.702Z,23.48
2022-08-03T22:18:12.241Z,23.65
2022-08-03T22:20:41.019Z,23.60
2022-08-03T22:23:09.637Z,23.71
2022-08-03T22:25:41.594Z,23.54
2022-08-03T22:28:12.789Z,23.71
2022-08-03T22:30:43.776Z,23.77
2022-08-03T22:33:13.543Z,23.90
2022-08-03T22:35:47.248Z,23.93
2022-08-03T22:38:17.620Z,23.75
2022-08-03T22:40:48.329Z,23.02
2022-08-03T22:43:16.798Z,23.49
2022-08-03T22:46:10.565Z,23.63
2022-08-03T22:48:40.836Z,23.71
2022-08-03T22:51:10.676Z,23.64
2022-08-03T22:53:41.812Z,23.76
2022-08-03T22:56:10.186Z,23.85
2022-08-03T22:58:38.571Z,23.41
2022-08-03T23:01:10.273Z,22.64
2022-08-03T23:04:00.508Z,22.60
2022-08-03T23:06:35.356Z,21.97
2022-08-03T23:09:06.966Z,22.55
2022-08-03T23:11:43.040Z,23.02
2022-08-03T23:14:16.777Z,23.04
2022-08-03T23:16:48.583Z,22.86
2022-08-03T23:19:25.183Z,23.05
2022-08-03T23:22:02.341Z,22.92
2022-08-03T23:24:36.082Z,22.92
2022-08-03T23:27:05.261Z,22.58
2022-08-03T23:29:36.191Z,22.62
2022-08-03T23:32:07.246Z,22.79
2022-08-03T23:34:53.679Z,22.67
2022-08-03T23:37:22.227Z,22.56
2022-08-03T23:39:50.785Z,22.59
2022-08-03T23:42:21.717Z,22.81
2022-08-03T23:44:54.858Z,22.78
2022-08-03T23:47:47.015Z,22.71
2022-08-03T23:50:14.382Z,23.13
2022-08-03T23:52:58.168Z,23.25
2022-08-03T23:55:40.118Z,22.77
2022-08-03T23:58:19.472Z,22.33
